Time;durP1;ratioP1;P1;durP2;ratioP2;P2;SDS_P1;SDS_P2;PMS_P1;PMS_P2;Temp;Humidity;BMP_temperature;BMP_pressure;BME280_temperature;BME280_humidity;BME280_pressure;Samples;Min_cycle;Max_cycle;Signal;HPM_P1;HPM_P2
2023/05/20 00:01:32;;;;;;;0.77;0.47;;;;;;;24.39;34.82;102317.25;5013782;28;100363;-73
2023/05/20 00:04:00;;;;;;;1.35;0.88;;;;;;;24.39;34.91;102320.00;5041915;27;96757;-73
2023/05/20 00:06:26;;;;;;;0.70;0.57;;;;;;;24.38;35.10;102316.38;5049088;27;97138;-73
2023/05/20 00:08:54;;;;;;;0.70;0.60;;;;;;;24.38;34.95;102313.66;5051890;27;97204;-73
2023/05/20 00:11:21;;;;;;;0.75;0.50;;;;;;;24.38;35.26;102319.13;5051217;27;96845;-73
2023/05/20 00:13:47;;;;;;;1.13;0.60;;;;;;;24.38;34.82;102318.28;5034984;27;96784;-73
2023/05/20 00:16:14;;;;;;;0.82;0.60;;;;;;;24.38;34.53;102316.38;5050078;27;96796;-73
2023/05/20 00:18:40;;;;;;;0.95;0.70;;;;;;;24.39;35.23;102311.75;5051132;27;97175;-73
2023/05/20 00:21:07;;;;;;;1.10;0.60;;;;;;;24.38;35.08;102310.91;5041459;27;100734;-73
2023/05/20 00:23:33;;;;;;;0.80;0.60;;;;;;;24.38;35.14;102319.13;5030827;27;97283;-73
2023/05/20 00:26:00;;;;;;;1.05;0.77;;;;;;;24.39;35.10;102318.13;5044691;27;96811;-73
2023/05/20 00:28:27;;;;;;;0.80;0.70;;;;;;;24.37;34.84;102313.81;5030991;27;97254;-73
2023/05/20 00:30:53;;;;;;;1.08;0.55;;;;;;;24.38;34.77;102310.91;5047415;27;98946;-73
2023/05/20 00:33:20;;;;;;;0.70;0.50;;;;;;;24.38;34.68;102304.53;5050420;27;97253;-73
2023/05/20 00:35:47;;;;;;;0.57;0.55;;;;;;;24.39;34.94;102309.00;5049399;27;99382;-73
2023/05/20 00:38:13;;;;;;;1.13;0.70;;;;;;;24.39;34.80;102307.13;5051249;27;97293;-73
2023/05/20 00:40:40;;;;;;;0.82;0.60;;;;;;;24.40;34.92;102302.50;5031953;27;100596;-73
2023/05/20 00:43:08;;;;;;;0.70;0.50;;;;;;;24.40;35.09;102308.84;5049447;27;97029;-73
2023/05/20 00:45:36;;;;;;;1.08;0.70;;;;;;;24.41;35.04;102298.72;5049027;27;96972;-73
2023/05/20 00:48:04;;;;;;;1.02;0.60;;;;;;;24.41;34.79;102312.47;5050843;27;96752;-73
2023/05/20 00:50:31;;;;;;;1.00;0.70;;;;;;;24.42;34.98;102305.06;5049391;27;98653;-73
2023/05/20 00:52:58;;;;;;;0.80;0.60;;;;;;;24.40;35.05;102300.63;5048747;27;98211;-73
2023/05/20 00:55:25;;;;;;;0.70;0.50;;;;;;;24.41;34.97;102301.47;5050188;27;96637;-73
2023/05/20 00:57:52;;;;;;;1.10;0.90;;;;;;;24.41;34.87;102301.47;5066013;27;96731;-73
2023/05/20 01:00:19;;;;;;;0.88;0.70;;;;;;;24.40;34.93;102300.63;5050345;27;97741;-73
2023/05/20 01:02:45;;;;;;;0.85;0.60;;;;;;;24.41;34.80;102298.72;5048806;27;96850;-73
2023/05/20 01:05:12;;;;;;;0.70;0.65;;;;;;;24.40;34.71;102302.50;5049533;27;97261;-73
2023/05/20 01:07:39;;;;;;;1.60;0.70;;;;;;;24.40;34.64;102302.50;5048831;27;96730;-73
2023/05/20 01:10:07;;;;;;;0.70;0.60;;;;;;;24.40;34.79;102297.00;5054387;27;97140;-74
2023/05/20 01:12:36;;;;;;;0.93;0.60;;;;;;;24.40;35.11;102297.00;5046624;27;96941;-73
2023/05/20 01:15:08;;;;;;;0.90;0.55;;;;;;;24.41;34.99;102298.72;5031529;27;97003;-73
2023/05/20 01:17:38;;;;;;;0.73;0.60;;;;;;;24.41;34.68;102301.47;5048690;27;97322;-73
2023/05/20 01:20:09;;;;;;;0.80;0.60;;;;;;;24.40;34.68;102291.50;5028341;27;98632;-74
2023/05/20 01:22:37;;;;;;;0.80;0.60;;;;;;;24.40;34.67;102295.13;5046558;27;97003;-73
2023/05/20 01:25:04;;;;;;;1.00;0.70;;;;;;;24.40;35.03;102295.13;5048461;27;97350;-73
2023/05/20 01:27:31;;;;;;;0.77;0.55;;;;;;;24.39;34.76;102293.41;5050432;27;96860;-73
2023/05/20 01:29:58;;;;;;;0.90;0.70;;;;;;;24.39;34.89;102296.16;5050058;27;98072;-73
2023/05/20 01:32:31;;;;;;;0.60;0.50;;;;;;;24.41;35.05;102298.72;5050508;27;96779;-73
2023/05/20 01:34:59;;;;;;;0.80;0.50;;;;;;;24.39;35.04;102292.53;5048426;27;96807;-73
2023/05/20 01:37:27;;;;;;;0.82;0.80;;;;;;;24.39;34.85;102287.03;5048973;27;97048;-73
2023/05/20 01:39:53;;;;;;;0.77;0.50;;;;;;;24.38;34.77;102286.19;5035749;27;96744;-73
2023/05/20 01:42:21;;;;;;;0.68;0.52;;;;;;;24.39;34.83;102282.41;5048234;27;100273;-73
2023/05/20 01:44:48;;;;;;;1.40;0.80;;;;;;;24.39;34.88;102285.16;5048899;27;96850;-73
2023/05/20 01:47:15;;;;;;;1.10;0.73;;;;;;;24.39;34.86;102285.16;5049910;27;96885;-73
2023/05/20 01:49:41;;;;;;;0.90;0.70;;;;;;;24.39;35.01;102287.03;5048190;27;97623;-74
2023/05/20 01:52:08;;;;;;;0.90;0.60;;;;;;;24.38;35.07;102283.44;5048071;27;99136;-74
2023/05/20 01:54:35;;;;;;;0.75;0.55;;;;;;;24.39;34.80;102284.31;5030635;27;96790;-73
2023/05/20 01:57:01;;;;;;;0.65;0.57;;;;;;;24.38;35.13;102280.69;5049641;27;96760;-73
2023/05/20 01:59:28;;;;;;;0.77;0.60;;;;;;;24.39;34.73;102273.31;5049684;27;97863;-73
2023/05/20 02:01:55;;;;;;;0.90;0.70;;;;;;;24.38;34.71;102277.94;5051707;27;99887;-73
2023/05/20 02:04:21;;;;;;;1.40;0.68;;;;;;;24.38;35.02;102279.84;5053307;27;96748;-73
2023/05/20 02:06:48;;;;;;;1.08;0.60;;;;;;;24.38;34.95;102277.94;5051172;27;96985;-73
2023/05/20 02:09:17;;;;;;;0.75;0.57;;;;;;;24.38;35.08;102277.09;5051190;27;96948;-73
2023/05/20 02:11:43;;;;;;;1.10;0.60;;;;;;;24.38;34.90;102277.09;5051443;27;96973;-73
2023/05/20 02:14:10;;;;;;;1.10;0.60;;;;;;;24.36;35.00;102271.75;5051561;27;96755;-73
2023/05/20 02:16:37;;;;;;;1.60;0.50;;;;;;;24.37;34.90;102273.47;5051352;27;96922;-73
2023/05/20 02:19:03;;;;;;;1.25;0.75;;;;;;;24.36;35.00;102266.28;5051295;27;99257;-73
2023/05/20 02:21:30;;;;;;;1.20;0.88;;;;;;;24.35;34.82;102275.53;5051456;27;99329;-73
2023/05/20 02:23:57;;;;;;;1.00;0.70;;;;;;;24.37;34.62;102264.38;5052881;27;97086;-73
2023/05/20 02:26:25;;;;;;;1.48;0.63;;;;;;;24.36;34.85;102265.41;5052118;27;97291;-73
2023/05/20 02:28:51;;;;;;;2.15;0.85;;;;;;;24.35;35.03;102263.69;5053043;27;97508;-73
2023/05/20 02:31:20;;;;;;;0.80;0.60;;;;;;;24.35;34.79;102258.19;5034765;27;97950;-73
2023/05/20 02:33:47;;;;;;;0.90;0.60;;;;;;;24.34;35.03;102256.47;5053778;27;96713;-73
2023/05/20 02:36:14;;;;;;;0.70;0.60;;;;;;;24.35;34.96;102266.44;5053635;27;96827;-73
2023/05/20 02:38:40;;;;;;;1.10;0.60;;;;;;;24.34;35.20;102254.59;5053868;27;96760;-73
2023/05/20 02:41:09;;;;;;;1.25;0.63;;;;;;;24.34;35.02;102259.22;5052377;27;100158;-73
2023/05/20 02:43:36;;;;;;;1.00;0.70;;;;;;;24.35;34.22;102270.03;5034231;27;96741;-73
2023/05/20 02:46:02;;;;;;;0.90;0.80;;;;;;;24.34;34.69;102265.56;5051154;27;96934;-74
2023/05/20 02:48:29;;;;;;;1.00;0.75;;;;;;;24.34;34.70;102270.19;5050859;27;99766;-73
2023/05/20 02:50:56;;;;;;;1.13;0.68;;;;;;;24.34;34.95;102267.47;5052967;27;98251;-73
2023/05/20 02:53:22;;;;;;;1.25;0.50;;;;;;;24.34;35.30;102271.06;5050623;27;96946;-73
2023/05/20 02:55:49;;;;;;;1.38;0.70;;;;;;;24.34;34.67;102271.06;5050959;27;96908;-73
2023/05/20 02:58:16;;;;;;;0.93;0.50;;;;;;;24.34;34.96;102262.81;5051874;27;97012;-73
2023/05/20 03:00:43;;;;;;;1.02;0.60;;;;;;;24.33;34.94;102265.75;5050818;27;98055;-73
2023/05/20 03:03:10;;;;;;;0.88;0.60;;;;;;;24.33;34.62;102257.50;5051227;27;97251;-73
2023/05/20 03:05:36;;;;;;;0.90;0.50;;;;;;;24.33;34.69;102255.63;5050821;27;96916;-73
2023/05/20 03:08:09;;;;;;;0.70;0.57;;;;;;;24.33;34.92;102252.88;5033717;27;98118;-73
2023/05/20 03:10:36;;;;;;;1.15;0.70;;;;;;;24.32;34.86;102251.16;5050727;27;97083;-73
2023/05/20 03:13:08;;;;;;;1.00;0.60;;;;;;;24.34;34.79;102245.50;5033680;27;97453;-73
2023/05/20 03:15:40;;;;;;;0.77;0.63;;;;;;;24.32;34.79;102247.53;5034206;27;96869;-73
2023/05/20 03:18:07;;;;;;;1.33;0.60;;;;;;;24.32;34.96;102253.91;5052240;27;97200;-73
2023/05/20 03:20:38;;;;;;;0.70;0.60;;;;;;;24.32;34.92;102253.03;5050344;27;98177;-73
2023/05/20 03:23:06;;;;;;;0.57;0.50;;;;;;;24.31;34.86;102268.66;5049858;27;96793;-73
2023/05/20 03:25:36;;;;;;;0.93;0.60;;;;;;;24.30;35.07;102261.44;5049878;27;96811;-74
2023/05/20 03:28:03;;;;;;;1.08;0.65;;;;;;;24.31;34.89;102265.03;5050315;27;97801;-73
2023/05/20 03:30:30;;;;;;;1.00;0.63;;;;;;;24.31;34.83;102262.28;5049640;27;99038;-73
2023/05/20 03:32:57;;;;;;;0.70;0.50;;;;;;;24.31;34.97;102265.03;5050163;27;97427;-74
2023/05/20 03:35:25;;;;;;;0.98;0.60;;;;;;;24.31;34.98;102262.28;5050828;27;97434;-73
2023/05/20 03:37:52;;;;;;;1.45;0.70;;;;;;;24.32;35.02;102261.28;5050653;27;97495;-73
2023/05/20 03:40:21;;;;;;;1.08;0.60;;;;;;;24.31;34.86;102260.41;5049234;27;96878;-73
2023/05/20 03:42:49;;;;;;;1.58;0.70;;;;;;;24.31;34.90;102265.03;5049566;27;97082;-73
2023/05/20 03:45:17;;;;;;;0.75;0.68;;;;;;;24.30;34.73;102258.69;5048850;27;96982;-73
2023/05/20 03:47:54;;;;;;;0.68;0.60;;;;;;;24.30;34.84;102260.56;5049454;27;97201;-73
2023/05/20 03:50:21;;;;;;;1.02;0.60;;;;;;;24.29;34.76;102254.22;5033984;27;97419;-73
2023/05/20 03:52:48;;;;;;;0.55;0.50;;;;;;;24.29;34.79;102256.09;5049244;27;96675;-73
2023/05/20 03:55:19;;;;;;;0.80;0.60;;;;;;;24.29;34.93;102258.84;5040524;27;96982;-73
2023/05/20 03:57:46;;;;;;;0.82;0.68;;;;;;;24.28;35.21;102259.88;5046674;27;97723;-73
2023/05/20 04:00:13;;;;;;;0.90;0.60;;;;;;;24.28;35.15;102258.00;5049848;27;97321;-73
2023/05/20 04:02:43;;;;;;;0.98;0.57;;;;;;;24.28;35.02;102259.88;5051757;27;96750;-73
2023/05/20 04:05:13;;;;;;;1.35;0.68;;;;;;;24.28;34.63;102258.00;5050277;27;96803;-73
2023/05/20 04:07:40;;;;;;;0.85;0.57;;;;;;;24.27;34.79;102250.78;5029586;27;97373;-73
2023/05/20 04:10:08;;;;;;;1.55;0.68;;;;;;;24.27;34.74;102248.03;5033254;27;96740;-73
2023/05/20 04:12:37;;;;;;;0.93;0.65;;;;;;;24.28;34.79;102254.38;5051115;27;97195;-74
2023/05/20 04:15:05;;;;;;;0.60;0.40;;;;;;;24.27;34.91;102256.28;5029095;27;96790;-73
2023/05/20 04:17:42;;;;;;;1.05;0.73;;;;;;;24.26;34.76;102250.91;5034241;27;97917;-73
2023/05/20 04:20:10;;;;;;;1.50;0.60;;;;;;;24.26;34.87;102251.78;5049539;27;98023;-73
2023/05/20 04:22:38;;;;;;;0.70;0.70;;;;;;;24.25;34.83;102254.69;5032367;27;96757;-73
2023/05/20 04:25:05;;;;;;;1.15;0.85;;;;;;;24.27;34.93;102263.66;5032790;27;97601;-73
2023/05/20 04:27:32;;;;;;;0.80;0.70;;;;;;;24.27;35.00;102263.66;5032382;27;99812;-73
2023/05/20 04:30:01;;;;;;;1.00;0.70;;;;;;;24.26;35.16;102261.91;5049895;27;99871;-73
2023/05/20 04:32:33;;;;;;;0.93;0.60;;;;;;;24.25;34.92;102258.28;5049438;27;96752;-74
2023/05/20 04:35:01;;;;;;;0.70;0.52;;;;;;;24.25;34.80;102266.53;5048917;27;96730;-74
2023/05/20 04:37:30;;;;;;;0.52;0.50;;;;;;;24.25;34.55;102268.41;5048627;27;97859;-74
2023/05/20 04:39:57;;;;;;;1.30;0.65;;;;;;;24.25;34.98;102271.16;5050587;27;96809;-73
2023/05/20 04:42:24;;;;;;;0.80;0.60;;;;;;;24.26;34.92;102271.00;5032511;27;96838;-73
2023/05/20 04:44:51;;;;;;;1.27;0.70;;;;;;;24.26;34.92;102262.75;5048912;27;96709;-73
2023/05/20 04:47:18;;;;;;;1.23;0.70;;;;;;;24.26;34.93;102262.75;5048919;27;97938;-73
2023/05/20 04:49:44;;;;;;;0.90;0.73;;;;;;;24.26;34.94;102259.16;5048814;27;97583;-73
2023/05/20 04:52:11;;;;;;;0.90;0.60;;;;;;;24.25;34.93;102265.66;5049475;27;96833;-73
2023/05/20 04:54:39;;;;;;;0.88;0.70;;;;;;;24.25;34.94;102257.44;5049090;27;97361;-73
2023/05/20 04:57:06;;;;;;;0.90;0.63;;;;;;;24.25;35.10;102255.53;5048567;27;98732;-73
2023/05/20 04:59:32;;;;;;;1.15;0.75;;;;;;;24.26;34.86;102261.91;5049956;27;98814;-73
2023/05/20 05:01:59;;;;;;;1.10;0.70;;;;;;;24.26;35.18;102253.66;5048666;27;97126;-73
2023/05/20 05:04:25;;;;;;;0.70;0.60;;;;;;;24.26;34.99;102254.53;5048714;27;96866;-74
2023/05/20 05:06:52;;;;;;;1.20;0.70;;;;;;;24.26;35.03;102253.66;5048547;27;99405;-73
2023/05/20 05:09:19;;;;;;;1.38;0.90;;;;;;;24.26;35.10;102253.66;5038098;27;97916;-73
2023/05/20 05:11:46;;;;;;;1.00;0.70;;;;;;;24.26;34.91;102259.16;5048378;27;97418;-73
2023/05/20 05:14:13;;;;;;;0.65;0.50;;;;;;;24.26;34.86;102250.91;5048585;27;96867;-73
2023/05/20 05:16:39;;;;;;;1.10;0.70;;;;;;;24.26;34.82;102253.66;5065593;27;97833;-73
2023/05/20 05:19:07;;;;;;;1.17;0.80;;;;;;;24.26;35.12;102249.03;5049283;27;98479;-73
2023/05/20 05:21:37;;;;;;;1.10;0.70;;;;;;;24.26;35.09;102254.53;5032753;27;97275;-73
2023/05/20 05:24:04;;;;;;;0.93;0.70;;;;;;;24.26;34.90;102245.44;5050957;27;96981;-73
2023/05/20 05:26:30;;;;;;;0.77;0.65;;;;;;;24.25;34.87;102247.31;5049102;27;99898;-73
2023/05/20 05:28:57;;;;;;;1.17;0.50;;;;;;;24.27;34.94;102258.16;5049146;27;99590;-73
2023/05/20 05:31:23;;;;;;;0.90;0.63;;;;;;;24.26;35.12;102253.66;5050972;27;96858;-73
2023/05/20 05:33:50;;;;;;;0.70;0.60;;;;;;;24.25;34.83;102255.53;5051363;27;96896;-73
2023/05/20 05:36:17;;;;;;;0.95;0.63;;;;;;;24.26;35.04;102242.69;5052320;27;97696;-74
2023/05/20 05:38:43;;;;;;;0.90;0.70;;;;;;;24.26;35.05;102250.91;5022248;28;97221;-73
2023/05/20 05:41:10;;;;;;;0.70;0.60;;;;;;;24.26;34.94;102245.44;5068258;27;96875;-74
2023/05/20 05:43:37;;;;;;;1.20;0.70;;;;;;;24.27;35.18;102247.19;5052318;27;97456;-74
2023/05/20 05:46:05;;;;;;;1.02;0.73;;;;;;;24.27;35.06;102256.28;5034928;27;98785;-74
2023/05/20 05:48:32;;;;;;;1.38;0.70;;;;;;;24.26;35.06;102251.78;5036691;27;100753;-74
2023/05/20 05:50:59;;;;;;;1.10;0.52;;;;;;;24.27;34.87;102259.03;5053194;27;97319;-74
2023/05/20 05:53:26;;;;;;;0.68;0.60;;;;;;;24.27;34.91;102256.28;5035776;27;97205;-74
2023/05/20 05:55:52;;;;;;;0.73;0.57;;;;;;;24.27;34.96;102250.78;5051358;27;97377;-73
2023/05/20 05:58:19;;;;;;;1.83;0.80;;;;;;;24.28;34.85;102251.66;5053414;27;96787;-74
2023/05/20 06:00:46;;;;;;;1.90;0.77;;;;;;;24.28;34.57;102248.91;5053340;27;96737;-74
2023/05/20 06:03:12;;;;;;;1.08;0.52;;;;;;;24.29;34.99;102253.38;5051987;27;97406;-74
2023/05/20 06:05:39;;;;;;;1.08;0.73;;;;;;;24.28;34.73;102238.78;5052599;27;97614;-74
2023/05/20 06:08:06;;;;;;;1.27;0.68;;;;;;;24.29;34.65;102246.00;5034746;27;97601;-74
2023/05/20 06:10:34;;;;;;;1.05;0.80;;;;;;;24.30;34.79;102244.97;5051569;27;97168;-73
2023/05/20 06:13:01;;;;;;;1.20;0.80;;;;;;;24.30;34.84;102244.09;5051416;27;96716;-74
2023/05/20 06:15:29;;;;;;;1.05;0.63;;;;;;;24.30;34.96;102235.88;5050392;27;98182;-74
2023/05/20 06:17:56;;;;;;;1.08;0.80;;;;;;;24.30;35.11;102242.22;5051299;27;99657;-73
2023/05/20 06:20:24;;;;;;;0.60;0.50;;;;;;;24.31;35.04;102243.06;5051362;27;96834;-74
2023/05/20 06:22:50;;;;;;;0.82;0.55;;;;;;;24.31;34.83;102229.34;5051340;27;97017;-74
2023/05/20 06:25:18;;;;;;;1.10;0.60;;;;;;;24.31;34.94;102238.44;5050743;27;96887;-75
2023/05/20 06:27:44;;;;;;;0.77;0.60;;;;;;;24.31;34.95;102227.47;5051558;27;96642;-73
2023/05/20 06:30:15;;;;;;;1.00;0.70;;;;;;;24.31;34.84;102232.09;5035516;27;96830;-74
2023/05/20 06:32:42;;;;;;;0.80;0.60;;;;;;;24.31;35.00;102216.47;5052008;27;97205;-74
2023/05/20 06:35:10;;;;;;;1.23;0.60;;;;;;;24.31;34.98;102219.22;5050481;27;97121;-74
2023/05/20 06:37:36;;;;;;;0.85;0.70;;;;;;;24.32;34.94;102217.34;5033803;27;99802;-74
2023/05/20 06:40:04;;;;;;;1.15;0.77;;;;;;;24.31;34.85;102215.63;5034042;27;97296;-74
2023/05/20 06:42:30;;;;;;;0.73;0.60;;;;;;;24.32;34.98;102209.09;5050833;27;98625;-74
2023/05/20 06:45:05;;;;;;;1.98;0.80;;;;;;;24.31;35.04;102207.38;5050700;27;99317;-74
2023/05/20 06:47:46;;;;;;;0.80;0.60;;;;;;;24.32;34.76;102209.97;5036182;27;97146;-74
2023/05/20 06:50:13;;;;;;;0.90;0.60;;;;;;;24.31;35.01;102208.25;5052535;27;96833;-74
2023/05/20 06:52:40;;;;;;;0.80;0.55;;;;;;;24.31;35.01;102199.16;5052575;27;96853;-74
2023/05/20 06:55:07;;;;;;;0.90;0.60;;;;;;;24.32;35.02;102207.22;5052133;27;96777;-75
2023/05/20 06:57:34;;;;;;;0.80;0.68;;;;;;;24.32;34.66;102193.50;5051023;27;99339;-74
2023/05/20 07:00:02;;;;;;;1.17;0.70;;;;;;;24.34;35.01;102209.78;5052660;27;96772;-74
2023/05/20 07:02:32;;;;;;;0.80;0.70;;;;;;;24.33;34.97;102208.06;5050749;27;97008;-74
2023/05/20 07:04:58;;;;;;;0.70;0.60;;;;;;;24.34;35.19;102198.81;5051192;27;97063;-74
2023/05/20 07:07:25;;;;;;;0.60;0.60;;;;;;;24.34;34.73;102199.66;5050621;27;100346;-74
2023/05/20 07:09:51;;;;;;;1.40;0.63;;;;;;;24.33;35.09;102192.47;5051376;27;96935;-74
2023/05/20 07:12:18;;;;;;;0.85;0.60;;;;;;;24.34;35.01;102196.06;5051093;27;96969;-73
2023/05/20 07:14:45;;;;;;;1.30;0.75;;;;;;;24.34;35.01;102196.06;5051992;27;97577;-74
2023/05/20 07:17:11;;;;;;;1.00;0.65;;;;;;;24.34;35.11;102205.16;5050693;27;100017;-73
2023/05/20 07:19:38;;;;;;;1.10;0.70;;;;;;;24.34;35.20;102196.94;5050883;27;97202;-74
2023/05/20 07:22:05;;;;;;;1.15;0.68;;;;;;;24.35;34.90;102197.78;5051156;27;97012;-73
2023/05/20 07:24:46;;;;;;;0.73;0.50;;;;;;;24.34;35.14;102188.69;5050289;27;96738;-74
2023/05/20 07:27:13;;;;;;;0.77;0.60;;;;;;;24.35;35.18;102190.41;5033115;27;99844;-74
2023/05/20 07:29:40;;;;;;;0.73;0.60;;;;;;;24.36;35.15;102185.78;5049839;27;97096;-74
2023/05/20 07:32:08;;;;;;;1.50;0.60;;;;;;;24.37;35.01;102182.88;5052702;27;97611;-73
2023/05/20 07:34:36;;;;;;;0.93;0.60;;;;;;;24.37;35.13;102182.00;5033138;27;96755;-73
2023/05/20 07:37:03;;;;;;;1.05;0.70;;;;;;;24.37;35.05;102182.00;5050124;27;99429;-74
2023/05/20 07:39:30;;;;;;;0.95;0.60;;;;;;;24.37;34.96;102179.25;5050344;27;97152;-73
2023/05/20 07:41:57;;;;;;;1.05;0.80;;;;;;;24.37;35.05;102176.50;5050255;27;97363;-74
2023/05/20 07:44:25;;;;;;;0.70;0.60;;;;;;;24.37;35.25;102171.88;5049644;27;99581;-74
2023/05/20 07:46:54;;;;;;;1.25;0.70;;;;;;;24.39;35.24;102157.97;5050070;27;99942;-74
2023/05/20 07:49:21;;;;;;;1.00;0.50;;;;;;;24.38;35.31;102161.75;5050058;27;97251;-74
2023/05/20 07:51:48;;;;;;;0.55;0.50;;;;;;;24.39;34.96;102168.97;5050290;27;97292;-74
2023/05/20 07:54:15;;;;;;;1.73;0.65;;;;;;;24.39;35.23;102164.34;5048668;27;100367;-74
2023/05/20 07:56:45;;;;;;;1.45;0.50;;;;;;;24.39;35.30;102161.59;5048654;27;99873;-74
2023/05/20 07:59:12;;;;;;;0.85;0.70;;;;;;;24.40;35.03;102167.94;5050776;27;97320;-74
2023/05/20 08:01:43;;;;;;;0.88;0.60;;;;;;;24.40;35.24;102165.19;5033883;27;96899;-74
2023/05/20 08:04:11;;;;;;;1.13;0.73;;;;;;;24.41;35.11;102166.91;5049420;27;97338;-74
2023/05/20 08:06:40;;;;;;;0.80;0.60;;;;;;;24.42;35.36;102156.78;5049117;27;98641;-74
2023/05/20 08:09:10;;;;;;;1.20;0.70;;;;;;;24.42;35.33;102163.13;5050098;27;96981;-74
2023/05/20 08:11:43;;;;;;;1.38;0.60;;;;;;;24.42;35.10;102160.41;5050323;27;97156;-74
2023/05/20 08:14:12;;;;;;;1.00;0.57;;;;;;;24.42;35.33;102165.03;5049142;27;100405;-74
2023/05/20 08:16:42;;;;;;;0.70;0.70;;;;;;;24.42;35.33;102152.16;5049134;27;98702;-73
2023/05/20 08:19:09;;;;;;;0.82;0.70;;;;;;;24.43;35.11;102158.50;5049276;27;96615;-74
2023/05/20 08:21:36;;;;;;;1.27;0.70;;;;;;;24.44;35.29;102149.25;5049415;27;97389;-73
2023/05/20 08:24:03;;;;;;;0.90;0.60;;;;;;;24.44;35.13;102158.34;5049034;27;100082;-74
2023/05/20 08:26:30;;;;;;;0.90;0.70;;;;;;;24.44;35.49;102158.34;5049046;27;99105;-74
2023/05/20 08:28:57;;;;;;;1.10;0.82;;;;;;;24.45;35.45;102151.81;5051324;27;97406;-74
2023/05/20 08:31:24;;;;;;;1.00;0.70;;;;;;;24.45;35.46;102160.06;5049756;27;96616;-74
2023/05/20 08:33:50;;;;;;;0.70;0.70;;;;;;;24.45;35.39;102151.81;5048768;27;97076;-74
2023/05/20 08:36:18;;;;;;;0.52;0.50;;;;;;;24.45;35.32;102140.84;5049627;27;97582;-74
2023/05/20 08:38:45;;;;;;;0.85;0.70;;;;;;;24.46;35.33;102163.66;5036186;27;99310;-74
2023/05/20 08:41:11;;;;;;;1.35;0.70;;;;;;;24.46;35.04;102150.78;5050611;27;97378;-74
2023/05/20 08:43:41;;;;;;;1.20;0.85;;;;;;;24.47;35.42;102154.41;5036756;27;98199;-74
2023/05/20 08:46:08;;;;;;;0.93;0.68;;;;;;;24.46;35.21;102145.31;5046847;27;97515;-74
2023/05/20 08:48:35;;;;;;;0.98;0.60;;;;;;;24.47;35.27;102147.00;5049553;27;96943;-74
2023/05/20 08:51:03;;;;;;;1.35;0.70;;;;;;;24.47;35.09;102130.53;5049704;27;97106;-74
2023/05/20 08:53:29;;;;;;;1.55;0.60;;;;;;;24.47;35.74;102136.03;5048373;27;97262;-74
2023/05/20 08:56:02;;;;;;;1.42;0.60;;;;;;;24.48;35.38;102129.50;5050549;27;96810;-74
2023/05/20 08:58:32;;;;;;;1.00;0.63;;;;;;;24.47;35.20;102124.19;5049975;27;97410;-74
2023/05/20 09:00:59;;;;;;;0.80;0.60;;;;;;;24.48;35.30;102129.50;5050801;27;96866;-74
2023/05/20 09:03:25;;;;;;;1.00;0.70;;;;;;;24.49;35.30;102135.88;5048869;27;97851;-74
2023/05/20 09:05:53;;;;;;;0.70;0.60;;;;;;;24.48;35.31;102124.03;5049122;27;97290;-74
2023/05/20 09:08:26;;;;;;;0.82;0.60;;;;;;;24.50;35.43;102134.84;5049827;27;97283;-74
2023/05/20 09:10:53;;;;;;;0.90;0.55;;;;;;;24.49;35.31;102125.75;5050852;27;97029;-74
2023/05/20 09:13:20;;;;;;;1.02;0.60;;;;;;;24.49;35.12;102124.88;5048977;27;96945;-74
2023/05/20 09:15:49;;;;;;;0.80;0.50;;;;;;;24.49;35.26;102122.13;5048145;27;97193;-74
2023/05/20 09:18:16;;;;;;;1.48;0.68;;;;;;;24.49;35.14;102117.50;5050187;27;96894;-74
2023/05/20 09:20:46;;;;;;;0.88;0.63;;;;;;;24.50;35.30;102121.97;5028613;27;96705;-74
2023/05/20 09:23:12;;;;;;;1.63;0.68;;;;;;;24.50;35.35;102115.63;5041039;27;97520;-74
2023/05/20 09:25:39;;;;;;;0.60;0.60;;;;;;;24.49;35.34;102112.00;5053316;27;97432;-74
2023/05/20 09:28:07;;;;;;;0.75;0.60;;;;;;;24.51;35.29;102109.09;5060185;27;96514;-74
2023/05/20 09:30:34;;;;;;;0.50;0.50;;;;;;;24.51;35.33;102109.94;5056665;27;96632;-74
2023/05/20 09:33:03;;;;;;;0.85;0.50;;;;;;;24.51;35.20;102107.19;5056862;27;96877;-74
2023/05/20 09:35:34;;;;;;;0.93;0.70;;;;;;;24.51;35.31;102114.59;5055863;27;98589;-74
2023/05/20 09:38:03;;;;;;;0.60;0.50;;;;;;;24.52;35.18;102119.03;5057732;27;96666;-74
2023/05/20 09:40:30;;;;;;;1.13;0.60;;;;;;;24.51;35.19;102115.44;5057412;27;97293;-74
2023/05/20 09:43:06;;;;;;;0.80;0.55;;;;;;;24.52;35.23;102099.81;5057709;27;98577;-74
2023/05/20 09:45:34;;;;;;;0.98;0.60;;;;;;;24.52;35.16;102103.44;5057958;27;97028;-74
2023/05/20 09:48:01;;;;;;;0.70;0.57;;;;;;;24.52;35.22;102117.16;5058936;27;96063;-74
2023/05/20 09:50:30;;;;;;;0.70;0.60;;;;;;;24.52;35.44;102117.16;5058471;27;97181;-74
2023/05/20 09:53:01;;;;;;;1.67;0.68;;;;;;;24.54;35.34;102117.03;5056608;27;98883;-74
2023/05/20 09:55:29;;;;;;;2.05;0.50;;;;;;;24.54;35.34;102106.03;5056169;27;97474;-74
2023/05/20 09:58:00;;;;;;;0.85;0.65;;;;;;;24.53;35.23;102109.81;5057171;27;97073;-74
2023/05/20 10:00:27;;;;;;;0.73;0.50;;;;;;;24.53;34.98;102109.81;5058587;27;96424;-74
2023/05/20 10:02:54;;;;;;;1.38;0.60;;;;;;;24.53;35.43;102107.91;5058327;27;97162;-74
2023/05/20 10:05:28;;;;;;;0.90;0.80;;;;;;;24.54;35.08;102101.41;5056724;27;98170;-75
2023/05/20 10:08:28;;;;;;;0.90;0.60;;;;;;;24.55;35.11;102096.78;5057245;27;96602;-74
2023/05/20 10:11:09;;;;;;;0.52;0.50;;;;;;;24.53;35.29;102099.69;5057538;27;97109;-74
2023/05/20 10:14:01;;;;;;;0.65;0.50;;;;;;;24.52;35.26;102084.19;5041484;27;97847;-74
2023/05/20 10:16:56;;;;;;;1.08;0.70;;;;;;;24.52;35.54;102084.19;5054615;27;97629;-74
2023/05/20 10:19:26;;;;;;;0.60;0.50;;;;;;;24.51;35.55;102084.38;5057284;27;96755;-74
2023/05/20 10:21:59;;;;;;;1.85;0.60;;;;;;;24.51;35.41;102082.47;5060191;27;96646;-74
2023/05/20 10:24:36;;;;;;;0.60;0.55;;;;;;;24.53;35.32;102083.22;5057163;27;96950;-74
2023/05/20 10:27:08;;;;;;;0.60;0.57;;;;;;;24.52;35.18;102078.72;5059692;27;98574;-74
2023/05/20 10:29:49;;;;;;;1.05;0.65;;;;;;;24.53;35.53;102066.72;5060315;27;96689;-74
2023/05/20 10:32:32;;;;;;;1.35;0.70;;;;;;;24.54;35.23;102073.94;5060727;27;95874;-74
2023/05/20 10:35:03;;;;;;;0.75;0.60;;;;;;;24.53;35.34;102065.88;5058384;27;99625;-74
2023/05/20 10:37:42;;;;;;;0.98;0.68;;;;;;;24.55;35.15;102069.31;5060597;27;96922;-74
2023/05/20 10:40:12;;;;;;;1.00;0.45;;;;;;;24.54;35.31;102067.59;5060471;27;96689;-74
2023/05/20 10:42:40;;;;;;;1.15;0.60;;;;;;;24.53;35.36;102058.47;5044801;27;96855;-74
2023/05/20 10:45:07;;;;;;;0.93;0.60;;;;;;;24.55;35.25;102058.31;5057544;27;98643;-74
2023/05/20 10:47:35;;;;;;;1.17;0.60;;;;;;;24.56;35.35;102065.53;5060597;27;97289;-74
2023/05/20 10:50:06;;;;;;;0.50;0.47;;;;;;;24.55;35.43;102058.31;5060260;27;97596;-74
2023/05/20 10:52:37;;;;;;;0.70;0.50;;;;;;;24.57;35.27;102065.34;5060492;27;96700;-74
2023/05/20 10:55:04;;;;;;;1.25;0.60;;;;;;;24.56;35.48;102060.88;5059816;27;98290;-74
2023/05/20 10:57:31;;;;;;;0.60;0.60;;;;;;;24.56;35.20;102055.41;5060813;27;97226;-74
2023/05/20 10:59:59;;;;;;;0.85;0.60;;;;;;;24.57;35.40;102064.50;5059666;27;96609;-74
2023/05/20 11:02:27;;;;;;;0.55;0.50;;;;;;;24.58;35.41;102063.47;5058837;27;96691;-74
2023/05/20 11:04:57;;;;;;;0.80;0.52;;;;;;;24.59;35.26;102055.06;5059569;27;96822;-74
2023/05/20 11:07:29;;;;;;;0.80;0.40;;;;;;;24.59;35.38;102066.03;5060060;27;96651;-74
2023/05/20 11:09:59;;;;;;;0.80;0.60;;;;;;;24.58;35.26;102050.59;5057125;27;96826;-74
2023/05/20 11:12:27;;;;;;;0.45;0.35;;;;;;;24.59;35.35;102055.06;5058553;27;96613;-75
2023/05/20 11:14:53;;;;;;;0.68;0.65;;;;;;;24.59;35.52;102044.06;5054256;27;98185;-74
2023/05/20 11:17:20;;;;;;;0.70;0.50;;;;;;;24.60;35.32;102040.28;5057148;27;97008;-74
2023/05/20 11:19:47;;;;;;;0.55;0.50;;;;;;;24.61;35.26;102035.66;5057713;27;97114;-74
2023/05/20 11:22:14;;;;;;;0.73;0.50;;;;;;;24.61;35.22;102036.50;5059047;27;96702;-74
2023/05/20 11:24:41;;;;;;;0.80;0.50;;;;;;;24.61;35.34;102031.03;5056859;27;96887;-74
2023/05/20 11:27:08;;;;;;;0.70;0.55;;;;;;;24.62;35.27;102031.88;5055988;27;99913;-74
2023/05/20 11:29:35;;;;;;;0.70;0.50;;;;;;;24.62;35.16;102026.38;5058965;27;98263;-74